KAUN

Details ICAO KAUN
Name AUBURN MUNI
Region United States
Timezone America/Los_Angeles (UTC-8.0)
Plans Departing 10
Arriving 7
Stats Elevation 1,536 ft / 468 m (AMSL)
Location 38.954750° -121.081667°
Runways 1
Magnetic Variation 13.539° E
Sunrise 2017-12-16 15:18:12 UTC / 2017-12-16 07:18:12 Local
Sunset 2017-12-17 00:44:48 UTC / 2017-12-16 16:44:48 Local
Advertisement - Login to hide

Runways

ID Width Length Bearing (true) Bearing (mag) Surface Threshold Offset Overrun Length
07 75 ft / 23 m 3,713 ft / 1,132 m 83.42° 69.88° Asphalt 200 ft / 61 m 0 ft / 0 m
25 75 ft / 23 m 3,713 ft / 1,132 m 263.42° 249.88° Asphalt 0 ft / 0 m 0 ft / 0 m

Map

Weather


0- 5 10 15 20 25 30 35+ Temperature / ° C

Clouds and Precipitation
Forecast for 2017-12-17 00:00 UTC. Updated 2 hours ago

Ground ~20,000 ft ~40,000 ft Winds

METAR

KAUN 162235Z AUTO 32009KT 10SM CLR 14/M03 A2990 RMK AO1

TAF

Not found

Frequencies

Recorded 119.37 MHz AWOS 3
Approach 125.40 MHz NORCAL APP/DEP
Unicom 122.70 MHz CTAF/UNICOM
Warning: Do not use this data for real-world aviation or navigation. No guarantee of current accuracy is given.